sensor_id;sensor_type;location;lat;lon;timestamp;P1;durP1;ratioP1;P2;durP2;ratioP2
35691;SDS011;26978;44.830;-0.674;2022-07-11T00:02:13;4.05;;;1.02;;
35691;SDS011;26978;44.830;-0.674;2022-07-11T00:04:39;1.92;;;0.90;;
35691;SDS011;26978;44.830;-0.674;2022-07-11T00:07:07;1.77;;;0.70;;
35691;SDS011;26978;44.830;-0.674;2022-07-11T00:09:33;3.38;;;1.05;;
35691;SDS011;26978;44.830;-0.674;2022-07-11T00:11:59;1.35;;;0.77;;
35691;SDS011;26978;44.830;-0.674;2022-07-11T00:14:25;1.02;;;0.80;;
35691;SDS011;26978;44.830;-0.674;2022-07-11T00:16:52;2.13;;;0.90;;
35691;SDS011;26978;44.830;-0.674;2022-07-11T00:19:19;2.47;;;0.70;;
35691;SDS011;26978;44.830;-0.674;2022-07-11T00:21:45;2.08;;;0.80;;
35691;SDS011;26978;44.830;-0.674;2022-07-11T00:24:14;1.00;;;0.63;;
35691;SDS011;26978;44.830;-0.674;2022-07-11T00:26:43;1.02;;;0.63;;
35691;SDS011;26978;44.830;-0.674;2022-07-11T00:29:08;1.48;;;0.75;;
35691;SDS011;26978;44.830;-0.674;2022-07-11T00:31:34;3.08;;;0.70;;
35691;SDS011;26978;44.830;-0.674;2022-07-11T00:34:00;3.58;;;0.95;;
35691;SDS011;26978;44.830;-0.674;2022-07-11T00:36:26;5.82;;;0.95;;
35691;SDS011;26978;44.830;-0.674;2022-07-11T00:38:51;3.13;;;0.82;;
35691;SDS011;26978;44.830;-0.674;2022-07-11T00:41:18;2.05;;;0.93;;
35691;SDS011;26978;44.830;-0.674;2022-07-11T00:43:49;5.40;;;1.10;;
35691;SDS011;26978;44.830;-0.674;2022-07-11T00:46:23;4.95;;;0.77;;
35691;SDS011;26978;44.830;-0.674;2022-07-11T00:48:50;7.15;;;1.63;;
35691;SDS011;26978;44.830;-0.674;2022-07-11T00:51:20;1.52;;;0.68;;
35691;SDS011;26978;44.830;-0.674;2022-07-11T00:53:52;1.55;;;0.70;;
35691;SDS011;26978;44.830;-0.674;2022-07-11T00:56:25;1.85;;;0.70;;
35691;SDS011;26978;44.830;-0.674;2022-07-11T00:58:52;0.82;;;0.80;;
35691;SDS011;26978;44.830;-0.674;2022-07-11T01:01:21;2.67;;;1.10;;
35691;SDS011;26978;44.830;-0.674;2022-07-11T01:03:47;2.28;;;0.93;;
35691;SDS011;26978;44.830;-0.674;2022-07-11T01:06:13;4.60;;;0.82;;
35691;SDS011;26978;44.830;-0.674;2022-07-11T01:08:39;3.90;;;1.10;;
35691;SDS011;26978;44.830;-0.674;2022-07-11T01:11:09;0.82;;;0.68;;
35691;SDS011;26978;44.830;-0.674;2022-07-11T01:13:44;0.90;;;0.85;;
35691;SDS011;26978;44.830;-0.674;2022-07-11T01:18:40;2.58;;;1.13;;
35691;SDS011;26978;44.830;-0.674;2022-07-11T01:21:16;1.10;;;0.90;;
35691;SDS011;26978;44.830;-0.674;2022-07-11T01:23:45;2.70;;;1.00;;
35691;SDS011;26978;44.830;-0.674;2022-07-11T01:26:12;3.35;;;1.08;;
35691;SDS011;26978;44.830;-0.674;2022-07-11T01:28:38;2.63;;;0.80;;
35691;SDS011;26978;44.830;-0.674;2022-07-11T01:31:04;4.00;;;1.25;;
35691;SDS011;26978;44.830;-0.674;2022-07-11T01:33:33;1.65;;;0.80;;
35691;SDS011;26978;44.830;-0.674;2022-07-11T01:36:01;2.13;;;1.10;;
35691;SDS011;26978;44.830;-0.674;2022-07-11T01:38:28;3.47;;;1.10;;
35691;SDS011;26978;44.830;-0.674;2022-07-11T01:40:54;1.20;;;0.80;;
35691;SDS011;26978;44.830;-0.674;2022-07-11T01:43:20;2.55;;;1.17;;
35691;SDS011;26978;44.830;-0.674;2022-07-11T01:45:45;2.78;;;1.00;;
35691;SDS011;26978;44.830;-0.674;2022-07-11T01:48:11;1.08;;;0.80;;
35691;SDS011;26978;44.830;-0.674;2022-07-11T01:50:37;1.38;;;0.93;;
35691;SDS011;26978;44.830;-0.674;2022-07-11T01:53:02;2.45;;;1.10;;
35691;SDS011;26978;44.830;-0.674;2022-07-11T01:55:28;1.23;;;0.90;;
35691;SDS011;26978;44.830;-0.674;2022-07-11T01:57:54;2.90;;;1.50;;
35691;SDS011;26978;44.830;-0.674;2022-07-11T02:00:19;3.63;;;1.33;;
35691;SDS011;26978;44.830;-0.674;2022-07-11T02:02:45;7.63;;;1.10;;
35691;SDS011;26978;44.830;-0.674;2022-07-11T02:05:11;6.15;;;1.60;;
35691;SDS011;26978;44.830;-0.674;2022-07-11T02:07:36;2.10;;;1.08;;
35691;SDS011;26978;44.830;-0.674;2022-07-11T02:10:21;4.50;;;1.15;;
35691;SDS011;26978;44.830;-0.674;2022-07-11T02:12:46;2.97;;;1.13;;
35691;SDS011;26978;44.830;-0.674;2022-07-11T02:15:12;2.55;;;0.98;;
35691;SDS011;26978;44.830;-0.674;2022-07-11T02:17:38;2.97;;;1.30;;
35691;SDS011;26978;44.830;-0.674;2022-07-11T02:20:04;2.13;;;0.95;;
35691;SDS011;26978;44.830;-0.674;2022-07-11T02:22:30;1.48;;;0.93;;
35691;SDS011;26978;44.830;-0.674;2022-07-11T02:24:56;2.10;;;1.00;;
35691;SDS011;26978;44.830;-0.674;2022-07-11T02:27:21;2.83;;;1.02;;
35691;SDS011;26978;44.830;-0.674;2022-07-11T02:29:47;6.53;;;1.10;;
35691;SDS011;26978;44.830;-0.674;2022-07-11T02:32:13;2.90;;;1.02;;
35691;SDS011;26978;44.830;-0.674;2022-07-11T02:34:38;5.18;;;1.40;;
35691;SDS011;26978;44.830;-0.674;2022-07-11T02:37:04;1.75;;;0.90;;
35691;SDS011;26978;44.830;-0.674;2022-07-11T02:39:30;4.07;;;1.05;;
35691;SDS011;26978;44.830;-0.674;2022-07-11T02:41:56;2.13;;;1.05;;
35691;SDS011;26978;44.830;-0.674;2022-07-11T02:44:22;2.08;;;1.10;;
35691;SDS011;26978;44.830;-0.674;2022-07-11T02:46:48;2.33;;;1.20;;
35691;SDS011;26978;44.830;-0.674;2022-07-11T02:49:14;1.92;;;0.90;;
35691;SDS011;26978;44.830;-0.674;2022-07-11T02:51:39;3.53;;;1.40;;
35691;SDS011;26978;44.830;-0.674;2022-07-11T02:54:05;5.57;;;1.23;;
35691;SDS011;26978;44.830;-0.674;2022-07-11T02:56:31;1.33;;;0.93;;
35691;SDS011;26978;44.830;-0.674;2022-07-11T02:58:57;2.35;;;1.10;;
35691;SDS011;26978;44.830;-0.674;2022-07-11T03:01:23;3.15;;;1.30;;
35691;SDS011;26978;44.830;-0.674;2022-07-11T03:03:49;1.60;;;1.00;;
35691;SDS011;26978;44.830;-0.674;2022-07-11T03:06:15;2.42;;;1.17;;
35691;SDS011;26978;44.830;-0.674;2022-07-11T03:08:40;2.75;;;0.93;;
35691;SDS011;26978;44.830;-0.674;2022-07-11T03:11:06;2.95;;;1.10;;
35691;SDS011;26978;44.830;-0.674;2022-07-11T03:13:31;1.85;;;1.10;;
35691;SDS011;26978;44.830;-0.674;2022-07-11T03:15:57;2.30;;;1.20;;
35691;SDS011;26978;44.830;-0.674;2022-07-11T03:18:23;5.22;;;1.13;;
35691;SDS011;26978;44.830;-0.674;2022-07-11T03:20:48;4.10;;;1.20;;
35691;SDS011;26978;44.830;-0.674;2022-07-11T03:23:14;7.03;;;1.42;;
35691;SDS011;26978;44.830;-0.674;2022-07-11T03:25:40;2.20;;;1.23;;
35691;SDS011;26978;44.830;-0.674;2022-07-11T03:28:05;6.03;;;1.00;;
35691;SDS011;26978;44.830;-0.674;2022-07-11T03:30:31;2.25;;;1.00;;
35691;SDS011;26978;44.830;-0.674;2022-07-11T03:32:56;2.47;;;1.33;;
35691;SDS011;26978;44.830;-0.674;2022-07-11T03:35:22;4.18;;;1.52;;
35691;SDS011;26978;44.830;-0.674;2022-07-11T03:38:06;3.65;;;1.25;;
35691;SDS011;26978;44.830;-0.674;2022-07-11T03:40:32;2.50;;;1.20;;
35691;SDS011;26978;44.830;-0.674;2022-07-11T03:42:57;2.00;;;1.00;;
35691;SDS011;26978;44.830;-0.674;2022-07-11T03:45:23;2.78;;;1.25;;
35691;SDS011;26978;44.830;-0.674;2022-07-11T03:47:49;4.13;;;1.48;;
35691;SDS011;26978;44.830;-0.674;2022-07-11T03:50:15;7.78;;;1.40;;
35691;SDS011;26978;44.830;-0.674;2022-07-11T03:52:41;2.47;;;1.40;;
35691;SDS011;26978;44.830;-0.674;2022-07-11T03:55:07;1.98;;;1.20;;
35691;SDS011;26978;44.830;-0.674;2022-07-11T03:57:33;2.67;;;1.25;;
35691;SDS011;26978;44.830;-0.674;2022-07-11T04:00:06;2.20;;;1.20;;
35691;SDS011;26978;44.830;-0.674;2022-07-11T04:02:34;1.93;;;1.10;;
35691;SDS011;26978;44.830;-0.674;2022-07-11T04:05:00;4.00;;;1.70;;
35691;SDS011;26978;44.830;-0.674;2022-07-11T04:07:26;5.50;;;1.35;;
35691;SDS011;26978;44.830;-0.674;2022-07-11T04:09:55;4.15;;;1.17;;
35691;SDS011;26978;44.830;-0.674;2022-07-11T04:12:21;2.95;;;1.20;;
35691;SDS011;26978;44.830;-0.674;2022-07-11T04:14:47;2.25;;;1.52;;
35691;SDS011;26978;44.830;-0.674;2022-07-11T04:17:12;3.42;;;1.33;;
35691;SDS011;26978;44.830;-0.674;2022-07-11T04:19:38;2.38;;;1.42;;
35691;SDS011;26978;44.830;-0.674;2022-07-11T04:22:05;3.60;;;1.35;;
35691;SDS011;26978;44.830;-0.674;2022-07-11T04:24:31;4.47;;;2.00;;
35691;SDS011;26978;44.830;-0.674;2022-07-11T04:26:57;3.70;;;1.33;;
35691;SDS011;26978;44.830;-0.674;2022-07-11T04:29:24;2.63;;;1.67;;
35691;SDS011;26978;44.830;-0.674;2022-07-11T04:31:50;3.15;;;1.48;;
35691;SDS011;26978;44.830;-0.674;2022-07-11T04:34:16;3.17;;;1.38;;
35691;SDS011;26978;44.830;-0.674;2022-07-11T04:36:42;7.07;;;1.75;;
35691;SDS011;26978;44.830;-0.674;2022-07-11T04:39:09;4.05;;;1.48;;
35691;SDS011;26978;44.830;-0.674;2022-07-11T04:41:34;2.20;;;1.35;;
35691;SDS011;26978;44.830;-0.674;2022-07-11T04:44:00;2.25;;;1.40;;
35691;SDS011;26978;44.830;-0.674;2022-07-11T04:46:26;6.43;;;1.60;;
35691;SDS011;26978;44.830;-0.674;2022-07-11T04:48:52;5.65;;;1.90;;
35691;SDS011;26978;44.830;-0.674;2022-07-11T04:51:17;5.05;;;1.67;;
35691;SDS011;26978;44.830;-0.674;2022-07-11T04:53:43;11.05;;;1.70;;
35691;SDS011;26978;44.830;-0.674;2022-07-11T04:56:09;4.22;;;1.67;;
35691;SDS011;26978;44.830;-0.674;2022-07-11T04:58:35;4.07;;;1.45;;
35691;SDS011;26978;44.830;-0.674;2022-07-11T05:01:01;4.65;;;1.73;;
35691;SDS011;26978;44.830;-0.674;2022-07-11T05:03:28;4.05;;;1.50;;
35691;SDS011;26978;44.830;-0.674;2022-07-11T05:05:54;1.88;;;1.33;;
35691;SDS011;26978;44.830;-0.674;2022-07-11T05:08:20;3.33;;;1.70;;
35691;SDS011;26978;44.830;-0.674;2022-07-11T05:10:46;1.40;;;1.23;;
35691;SDS011;26978;44.830;-0.674;2022-07-11T05:13:12;9.88;;;1.48;;
35691;SDS011;26978;44.830;-0.674;2022-07-11T05:15:38;4.00;;;1.75;;
35691;SDS011;26978;44.830;-0.674;2022-07-11T05:18:04;7.50;;;1.55;;
35691;SDS011;26978;44.830;-0.674;2022-07-11T05:20:30;2.58;;;1.73;;
35691;SDS011;26978;44.830;-0.674;2022-07-11T05:22:57;4.43;;;1.60;;
35691;SDS011;26978;44.830;-0.674;2022-07-11T05:25:23;2.75;;;1.60;;
35691;SDS011;26978;44.830;-0.674;2022-07-11T05:27:49;3.03;;;1.50;;
35691;SDS011;26978;44.830;-0.674;2022-07-11T05:30:15;6.18;;;1.75;;
35691;SDS011;26978;44.830;-0.674;2022-07-11T05:32:40;4.35;;;1.50;;
35691;SDS011;26978;44.830;-0.674;2022-07-11T05:35:06;9.77;;;2.22;;
35691;SDS011;26978;44.830;-0.674;2022-07-11T05:37:32;2.17;;;1.45;;
35691;SDS011;26978;44.830;-0.674;2022-07-11T05:39:58;5.25;;;1.80;;
35691;SDS011;26978;44.830;-0.674;2022-07-11T05:42:23;3.45;;;1.60;;
35691;SDS011;26978;44.830;-0.674;2022-07-11T05:44:49;2.33;;;1.50;;
35691;SDS011;26978;44.830;-0.674;2022-07-11T05:47:15;4.22;;;1.60;;
35691;SDS011;26978;44.830;-0.674;2022-07-11T05:49:42;10.25;;;2.08;;
35691;SDS011;26978;44.830;-0.674;2022-07-11T05:52:07;5.25;;;1.58;;
35691;SDS011;26978;44.830;-0.674;2022-07-11T05:54:33;6.40;;;1.92;;
35691;SDS011;26978;44.830;-0.674;2022-07-11T05:56:59;2.88;;;1.73;;
35691;SDS011;26978;44.830;-0.674;2022-07-11T05:59:27;4.10;;;1.58;;
35691;SDS011;26978;44.830;-0.674;2022-07-11T06:01:53;1.52;;;1.40;;
35691;SDS011;26978;44.830;-0.674;2022-07-11T06:04:19;6.18;;;1.52;;
35691;SDS011;26978;44.830;-0.674;2022-07-11T06:06:45;7.95;;;1.52;;
35691;SDS011;26978;44.830;-0.674;2022-07-11T06:09:11;5.50;;;1.60;;
35691;SDS011;26978;44.830;-0.674;2022-07-11T06:11:37;4.32;;;1.80;;
35691;SDS011;26978;44.830;-0.674;2022-07-11T06:14:02;2.70;;;1.58;;
35691;SDS011;26978;44.830;-0.674;2022-07-11T06:16:28;6.07;;;1.98;;
35691;SDS011;26978;44.830;-0.674;2022-07-11T06:18:54;5.93;;;1.80;;
35691;SDS011;26978;44.830;-0.674;2022-07-11T06:21:20;10.43;;;2.03;;
35691;SDS011;26978;44.830;-0.674;2022-07-11T06:23:46;2.70;;;1.45;;
35691;SDS011;26978;44.830;-0.674;2022-07-11T06:26:12;6.47;;;1.75;;
35691;SDS011;26978;44.830;-0.674;2022-07-11T06:28:40;7.53;;;1.55;;
35691;SDS011;26978;44.830;-0.674;2022-07-11T06:31:06;8.02;;;1.58;;
35691;SDS011;26978;44.830;-0.674;2022-07-11T06:33:32;5.85;;;1.40;;
35691;SDS011;26978;44.830;-0.674;2022-07-11T06:35:58;2.72;;;1.58;;
35691;SDS011;26978;44.830;-0.674;2022-07-11T06:38:24;5.90;;;1.83;;
35691;SDS011;26978;44.830;-0.674;2022-07-11T06:40:50;3.97;;;1.80;;
35691;SDS011;26978;44.830;-0.674;2022-07-11T06:43:16;4.03;;;1.50;;
35691;SDS011;26978;44.830;-0.674;2022-07-11T06:45:41;8.98;;;1.60;;
35691;SDS011;26978;44.830;-0.674;2022-07-11T06:48:07;4.95;;;1.30;;
35691;SDS011;26978;44.830;-0.674;2022-07-11T06:50:33;5.47;;;1.77;;
35691;SDS011;26978;44.830;-0.674;2022-07-11T06:52:59;13.70;;;1.77;;
35691;SDS011;26978;44.830;-0.674;2022-07-11T06:55:25;5.35;;;1.50;;
35691;SDS011;26978;44.830;-0.674;2022-07-11T06:57:50;5.90;;;1.45;;
35691;SDS011;26978;44.830;-0.674;2022-07-11T07:00:16;3.38;;;1.40;;
35691;SDS011;26978;44.830;-0.674;2022-07-11T07:02:45;17.17;;;2.33;;
35691;SDS011;26978;44.830;-0.674;2022-07-11T07:05:11;9.15;;;1.80;;
35691;SDS011;26978;44.830;-0.674;2022-07-11T07:07:37;6.28;;;2.05;;
35691;SDS011;26978;44.830;-0.674;2022-07-11T07:10:02;6.10;;;1.70;;
35691;SDS011;26978;44.830;-0.674;2022-07-11T07:12:28;6.55;;;1.42;;
35691;SDS011;26978;44.830;-0.674;2022-07-11T07:14:54;5.30;;;1.83;;
35691;SDS011;26978;44.830;-0.674;2022-07-11T07:17:20;5.50;;;1.50;;
35691;SDS011;26978;44.830;-0.674;2022-07-11T07:19:45;5.57;;;1.42;;
35691;SDS011;26978;44.830;-0.674;2022-07-11T07:22:11;5.45;;;1.63;;
35691;SDS011;26978;44.830;-0.674;2022-07-11T07:24:41;8.02;;;1.63;;
35691;SDS011;26978;44.830;-0.674;2022-07-11T07:27:08;6.28;;;1.85;;
35691;SDS011;26978;44.830;-0.674;2022-07-11T07:29:33;4.82;;;1.63;;
35691;SDS011;26978;44.830;-0.674;2022-07-11T07:31:59;9.65;;;1.70;;
35691;SDS011;26978;44.830;-0.674;2022-07-11T07:34:25;6.47;;;1.55;;
35691;SDS011;26978;44.830;-0.674;2022-07-11T07:36:51;5.05;;;1.60;;
35691;SDS011;26978;44.830;-0.674;2022-07-11T07:39:17;4.75;;;1.60;;
35691;SDS011;26978;44.830;-0.674;2022-07-11T07:41:43;4.03;;;1.40;;
35691;SDS011;26978;44.830;-0.674;2022-07-11T07:44:09;4.32;;;1.70;;
35691;SDS011;26978;44.830;-0.674;2022-07-11T07:46:35;8.93;;;1.52;;
35691;SDS011;26978;44.830;-0.674;2022-07-11T07:49:01;7.68;;;1.67;;
35691;SDS011;26978;44.830;-0.674;2022-07-11T07:51:28;6.63;;;1.70;;
35691;SDS011;26978;44.830;-0.674;2022-07-11T07:53:54;6.93;;;1.40;;
35691;SDS011;26978;44.830;-0.674;2022-07-11T07:56:20;10.02;;;1.58;;
35691;SDS011;26978;44.830;-0.674;2022-07-11T07:58:46;9.07;;;1.60;;
35691;SDS011;26978;44.830;-0.674;2022-07-11T08:01:11;5.50;;;2.00;;
35691;SDS011;26978;44.830;-0.674;2022-07-11T08:03:55;4.60;;;1.77;;
35691;SDS011;26978;44.830;-0.674;2022-07-11T08:06:21;5.65;;;1.38;;
35691;SDS011;26978;44.830;-0.674;2022-07-11T08:08:47;6.68;;;1.70;;
35691;SDS011;26978;44.830;-0.674;2022-07-11T08:11:14;6.90;;;1.90;;
35691;SDS011;26978;44.830;-0.674;2022-07-11T08:13:40;12.05;;;2.25;;
35691;SDS011;26978;44.830;-0.674;2022-07-11T08:16:05;4.40;;;1.58;;
35691;SDS011;26978;44.830;-0.674;2022-07-11T08:18:32;10.20;;;1.60;;
35691;SDS011;26978;44.830;-0.674;2022-07-11T08:20:59;7.20;;;1.50;;
35691;SDS011;26978;44.830;-0.674;2022-07-11T08:23:25;8.65;;;1.98;;
35691;SDS011;26978;44.830;-0.674;2022-07-11T08:25:50;13.45;;;1.90;;
35691;SDS011;26978;44.830;-0.674;2022-07-11T08:28:17;10.93;;;1.60;;
35691;SDS011;26978;44.830;-0.674;2022-07-11T08:30:42;5.82;;;1.90;;
35691;SDS011;26978;44.830;-0.674;2022-07-11T08:33:08;8.57;;;1.50;;
35691;SDS011;26978;44.830;-0.674;2022-07-11T08:35:36;7.70;;;1.42;;
35691;SDS011;26978;44.830;-0.674;2022-07-11T08:38:02;7.10;;;2.30;;
35691;SDS011;26978;44.830;-0.674;2022-07-11T08:40:27;6.55;;;1.60;;
35691;SDS011;26978;44.830;-0.674;2022-07-11T08:42:53;5.40;;;1.70;;
35691;SDS011;26978;44.830;-0.674;2022-07-11T08:45:31;7.35;;;1.77;;
35691;SDS011;26978;44.830;-0.674;2022-07-11T08:47:57;10.00;;;2.40;;
35691;SDS011;26978;44.830;-0.674;2022-07-11T08:50:25;3.45;;;1.40;;
35691;SDS011;26978;44.830;-0.674;2022-07-11T08:52:55;8.70;;;2.20;;
35691;SDS011;26978;44.830;-0.674;2022-07-11T08:55:23;6.57;;;1.60;;
35691;SDS011;26978;44.830;-0.674;2022-07-11T08:57:49;4.20;;;1.35;;
35691;SDS011;26978;44.830;-0.674;2022-07-11T09:00:15;5.93;;;1.70;;
35691;SDS011;26978;44.830;-0.674;2022-07-11T09:02:42;6.13;;;2.42;;
35691;SDS011;26978;44.830;-0.674;2022-07-11T09:05:09;9.07;;;1.90;;
35691;SDS011;26978;44.830;-0.674;2022-07-11T09:07:45;4.72;;;1.48;;
35691;SDS011;26978;44.830;-0.674;2022-07-11T09:10:12;2.30;;;1.52;;
35691;SDS011;26978;44.830;-0.674;2022-07-11T09:12:58;8.73;;;2.13;;
35691;SDS011;26978;44.830;-0.674;2022-07-11T09:18:29;6.22;;;1.73;;
35691;SDS011;26978;44.830;-0.674;2022-07-11T09:21:08;4.75;;;1.90;;
35691;SDS011;26978;44.830;-0.674;2022-07-11T09:23:57;2.30;;;1.42;;
35691;SDS011;26978;44.830;-0.674;2022-07-11T09:26:43;8.45;;;2.00;;
35691;SDS011;26978;44.830;-0.674;2022-07-11T09:29:12;7.75;;;1.70;;
35691;SDS011;26978;44.830;-0.674;2022-07-11T09:31:40;5.57;;;2.00;;
35691;SDS011;26978;44.830;-0.674;2022-07-11T09:34:10;4.85;;;1.98;;
35691;SDS011;26978;44.830;-0.674;2022-07-11T09:36:42;8.07;;;2.00;;
35691;SDS011;26978;44.830;-0.674;2022-07-11T09:39:09;5.78;;;1.52;;
35691;SDS011;26978;44.830;-0.674;2022-07-11T09:41:39;3.17;;;1.70;;
35691;SDS011;26978;44.830;-0.674;2022-07-11T09:46:36;10.45;;;1.95;;
35691;SDS011;26978;44.830;-0.674;2022-07-11T09:49:02;4.15;;;1.30;;
35691;SDS011;26978;44.830;-0.674;2022-07-11T09:51:29;2.72;;;1.30;;
35691;SDS011;26978;44.830;-0.674;2022-07-11T09:53:57;4.78;;;1.30;;
35691;SDS011;26978;44.830;-0.674;2022-07-11T09:56:31;5.75;;;1.73;;
35691;SDS011;26978;44.830;-0.674;2022-07-11T09:59:05;3.05;;;1.20;;
35691;SDS011;26978;44.830;-0.674;2022-07-11T10:01:32;2.28;;;1.15;;
35691;SDS011;26978;44.830;-0.674;2022-07-11T10:03:58;3.92;;;1.48;;
35691;SDS011;26978;44.830;-0.674;2022-07-11T10:06:24;4.78;;;1.58;;
35691;SDS011;26978;44.830;-0.674;2022-07-11T10:08:51;4.10;;;1.40;;
35691;SDS011;26978;44.830;-0.674;2022-07-11T10:11:18;4.25;;;2.15;;
35691;SDS011;26978;44.830;-0.674;2022-07-11T10:13:44;4.22;;;1.17;;
35691;SDS011;26978;44.830;-0.674;2022-07-11T10:18:44;3.35;;;1.20;;
35691;SDS011;26978;44.830;-0.674;2022-07-11T10:21:25;5.22;;;1.25;;
35691;SDS011;26978;44.830;-0.674;2022-07-11T10:24:01;7.72;;;1.48;;
35691;SDS011;26978;44.830;-0.674;2022-07-11T10:30:12;1.90;;;1.10;;
35691;SDS011;26978;44.830;-0.674;2022-07-11T10:35:22;7.78;;;1.63;;
35691;SDS011;26978;44.830;-0.674;2022-07-11T10:37:50;41.38;;;3.55;;
35691;SDS011;26978;44.830;-0.674;2022-07-11T10:40:59;10.02;;;1.67;;
35691;SDS011;26978;44.830;-0.674;2022-07-11T10:43:08;11.00;;;1.65;;
35691;SDS011;26978;44.830;-0.674;2022-07-11T10:48:20;6.15;;;1.65;;
35691;SDS011;26978;44.830;-0.674;2022-07-11T10:50:47;1.48;;;1.15;;
35691;SDS011;26978;44.830;-0.674;2022-07-11T10:53:21;6.32;;;1.30;;
35691;SDS011;26978;44.830;-0.674;2022-07-11T10:58:53;15.70;;;1.73;;
35691;SDS011;26978;44.830;-0.674;2022-07-11T11:01:31;11.15;;;1.50;;
35691;SDS011;26978;44.830;-0.674;2022-07-11T11:07:00;2.35;;;1.38;;
35691;SDS011;26978;44.830;-0.674;2022-07-11T11:09:36;5.72;;;1.33;;
35691;SDS011;26978;44.830;-0.674;2022-07-11T11:12:03;5.40;;;1.48;;
35691;SDS011;26978;44.830;-0.674;2022-07-11T11:14:29;5.28;;;1.63;;
35691;SDS011;26978;44.830;-0.674;2022-07-11T11:16:55;7.28;;;1.38;;
35691;SDS011;26978;44.830;-0.674;2022-07-11T11:20:00;7.82;;;1.20;;
35691;SDS011;26978;44.830;-0.674;2022-07-11T11:22:26;4.47;;;1.17;;
35691;SDS011;26978;44.830;-0.674;2022-07-11T11:24:54;5.07;;;1.27;;
35691;SDS011;26978;44.830;-0.674;2022-07-11T11:27:21;6.15;;;1.40;;
35691;SDS011;26978;44.830;-0.674;2022-07-11T11:29:54;2.30;;;1.20;;
35691;SDS011;26978;44.830;-0.674;2022-07-11T11:32:22;6.25;;;1.40;;
35691;SDS011;26978;44.830;-0.674;2022-07-11T11:34:54;5.45;;;1.35;;
35691;SDS011;26978;44.830;-0.674;2022-07-11T11:37:20;9.18;;;1.80;;
35691;SDS011;26978;44.830;-0.674;2022-07-11T11:39:46;8.40;;;1.50;;
35691;SDS011;26978;44.830;-0.674;2022-07-11T11:42:14;2.55;;;1.30;;
35691;SDS011;26978;44.830;-0.674;2022-07-11T11:47:21;3.47;;;1.40;;
35691;SDS011;26978;44.830;-0.674;2022-07-11T11:49:47;6.45;;;1.65;;
35691;SDS011;26978;44.830;-0.674;2022-07-11T11:52:14;5.88;;;1.35;;
35691;SDS011;26978;44.830;-0.674;2022-07-11T11:54:40;1.67;;;1.00;;
35691;SDS011;26978;44.830;-0.674;2022-07-11T11:57:10;5.07;;;1.40;;
35691;SDS011;26978;44.830;-0.674;2022-07-11T11:59:36;1.92;;;1.23;;
35691;SDS011;26978;44.830;-0.674;2022-07-11T12:02:03;3.17;;;1.15;;
35691;SDS011;26978;44.830;-0.674;2022-07-11T12:04:30;17.20;;;2.15;;
35691;SDS011;26978;44.830;-0.674;2022-07-11T12:06:59;9.07;;;1.60;;
35691;SDS011;26978;44.830;-0.674;2022-07-11T12:09:26;6.38;;;1.08;;
35691;SDS011;26978;44.830;-0.674;2022-07-11T12:12:11;4.90;;;1.40;;
35691;SDS011;26978;44.830;-0.674;2022-07-11T12:14:57;2.30;;;1.10;;
35691;SDS011;26978;44.830;-0.674;2022-07-11T12:17:26;4.65;;;1.30;;
35691;SDS011;26978;44.830;-0.674;2022-07-11T12:19:54;3.15;;;1.52;;
35691;SDS011;26978;44.830;-0.674;2022-07-11T12:22:20;11.00;;;1.38;;
35691;SDS011;26978;44.830;-0.674;2022-07-11T12:24:49;2.65;;;1.25;;
35691;SDS011;26978;44.830;-0.674;2022-07-11T12:27:19;2.80;;;1.10;;
35691;SDS011;26978;44.830;-0.674;2022-07-11T12:29:45;2.13;;;1.23;;
35691;SDS011;26978;44.830;-0.674;2022-07-11T12:32:16;3.47;;;1.85;;
35691;SDS011;26978;44.830;-0.674;2022-07-11T12:34:43;4.38;;;1.13;;
35691;SDS011;26978;44.830;-0.674;2022-07-11T12:39:51;4.07;;;1.40;;
35691;SDS011;26978;44.830;-0.674;2022-07-11T12:47:32;4.28;;;1.10;;
35691;SDS011;26978;44.830;-0.674;2022-07-11T12:49:58;6.30;;;1.30;;
35691;SDS011;26978;44.830;-0.674;2022-07-11T12:52:39;1.75;;;1.02;;
35691;SDS011;26978;44.830;-0.674;2022-07-11T12:55:06;12.10;;;1.13;;
35691;SDS011;26978;44.830;-0.674;2022-07-11T12:57:33;7.95;;;1.40;;
35691;SDS011;26978;44.830;-0.674;2022-07-11T13:00:14;5.63;;;1.20;;
35691;SDS011;26978;44.830;-0.674;2022-07-11T13:02:42;2.67;;;1.00;;
35691;SDS011;26978;44.830;-0.674;2022-07-11T13:05:14;1.67;;;0.95;;
35691;SDS011;26978;44.830;-0.674;2022-07-11T13:07:41;3.88;;;1.30;;
35691;SDS011;26978;44.830;-0.674;2022-07-11T13:10:26;9.05;;;1.30;;
35691;SDS011;26978;44.830;-0.674;2022-07-11T13:13:12;12.63;;;1.65;;
35691;SDS011;26978;44.830;-0.674;2022-07-11T13:15:38;4.32;;;1.30;;
35691;SDS011;26978;44.830;-0.674;2022-07-11T13:18:04;2.25;;;1.10;;
35691;SDS011;26978;44.830;-0.674;2022-07-11T13:20:30;2.65;;;1.13;;
35691;SDS011;26978;44.830;-0.674;2022-07-11T13:23:00;9.00;;;1.17;;
35691;SDS011;26978;44.830;-0.674;2022-07-11T13:25:25;3.25;;;0.98;;
35691;SDS011;26978;44.830;-0.674;2022-07-11T13:27:52;3.83;;;1.02;;
35691;SDS011;26978;44.830;-0.674;2022-07-11T13:30:20;1.75;;;1.00;;
35691;SDS011;26978;44.830;-0.674;2022-07-11T13:32:48;7.10;;;1.20;;
35691;SDS011;26978;44.830;-0.674;2022-07-11T13:35:16;5.40;;;1.08;;
35691;SDS011;26978;44.830;-0.674;2022-07-11T13:37:43;4.57;;;1.27;;
35691;SDS011;26978;44.830;-0.674;2022-07-11T13:40:10;2.13;;;1.00;;
35691;SDS011;26978;44.830;-0.674;2022-07-11T13:42:39;4.97;;;1.27;;
35691;SDS011;26978;44.830;-0.674;2022-07-11T13:45:06;5.13;;;1.33;;
35691;SDS011;26978;44.830;-0.674;2022-07-11T13:47:33;2.40;;;1.15;;
35691;SDS011;26978;44.830;-0.674;2022-07-11T13:49:59;1.25;;;1.02;;
35691;SDS011;26978;44.830;-0.674;2022-07-11T13:52:25;6.38;;;0.98;;
35691;SDS011;26978;44.830;-0.674;2022-07-11T13:54:51;3.90;;;1.08;;
35691;SDS011;26978;44.830;-0.674;2022-07-11T13:57:17;3.42;;;0.90;;
35691;SDS011;26978;44.830;-0.674;2022-07-11T13:59:45;2.72;;;0.82;;
35691;SDS011;26978;44.830;-0.674;2022-07-11T14:02:11;2.17;;;1.15;;
35691;SDS011;26978;44.830;-0.674;2022-07-11T14:04:36;1.98;;;1.05;;
35691;SDS011;26978;44.830;-0.674;2022-07-11T14:07:02;1.10;;;1.00;;
35691;SDS011;26978;44.830;-0.674;2022-07-11T14:09:28;1.45;;;1.05;;
35691;SDS011;26978;44.830;-0.674;2022-07-11T14:11:54;4.85;;;0.98;;
35691;SDS011;26978;44.830;-0.674;2022-07-11T14:14:20;3.03;;;1.00;;
35691;SDS011;26978;44.830;-0.674;2022-07-11T14:16:46;3.67;;;1.15;;
35691;SDS011;26978;44.830;-0.674;2022-07-11T14:19:12;3.00;;;0.98;;
35691;SDS011;26978;44.830;-0.674;2022-07-11T14:21:38;1.30;;;1.00;;
35691;SDS011;26978;44.830;-0.674;2022-07-11T14:24:06;5.07;;;1.05;;
35691;SDS011;26978;44.830;-0.674;2022-07-11T14:26:32;3.50;;;0.90;;
35691;SDS011;26978;44.830;-0.674;2022-07-11T14:28:59;1.58;;;0.90;;
35691;SDS011;26978;44.830;-0.674;2022-07-11T14:31:25;2.88;;;0.98;;
35691;SDS011;26978;44.830;-0.674;2022-07-11T14:33:53;1.85;;;0.93;;
35691;SDS011;26978;44.830;-0.674;2022-07-11T14:36:20;1.73;;;0.50;;
35691;SDS011;26978;44.830;-0.674;2022-07-11T14:38:46;2.38;;;0.80;;
35691;SDS011;26978;44.830;-0.674;2022-07-11T14:41:12;1.88;;;0.70;;
35691;SDS011;26978;44.830;-0.674;2022-07-11T14:43:39;2.65;;;0.82;;
35691;SDS011;26978;44.830;-0.674;2022-07-11T14:46:05;0.82;;;0.65;;
35691;SDS011;26978;44.830;-0.674;2022-07-11T14:48:31;1.45;;;0.73;;
35691;SDS011;26978;44.830;-0.674;2022-07-11T14:50:57;0.90;;;0.80;;
35691;SDS011;26978;44.830;-0.674;2022-07-11T14:53:23;2.30;;;0.77;;
35691;SDS011;26978;44.830;-0.674;2022-07-11T14:55:50;9.15;;;1.00;;
35691;SDS011;26978;44.830;-0.674;2022-07-11T14:58:16;2.38;;;0.80;;
35691;SDS011;26978;44.830;-0.674;2022-07-11T15:00:42;1.95;;;0.80;;
35691;SDS011;26978;44.830;-0.674;2022-07-11T15:03:11;3.45;;;0.95;;
35691;SDS011;26978;44.830;-0.674;2022-07-11T15:05:55;3.13;;;0.85;;
35691;SDS011;26978;44.830;-0.674;2022-07-11T15:08:21;2.55;;;0.75;;
35691;SDS011;26978;44.830;-0.674;2022-07-11T15:11:06;3.63;;;0.70;;
35691;SDS011;26978;44.830;-0.674;2022-07-11T15:14:07;2.13;;;0.80;;